Time;durP1;ratioP1;P1;durP2;ratioP2;P2;SDS_P1;SDS_P2;PMS_P1;PMS_P2;Temp;Humidity;BMP_temperature;BMP_pressure;BME280_temperature;BME280_humidity;BME280_pressure;Samples;Min_cycle;Max_cycle;Signal;HPM_P1;HPM_P2
2021/06/28 00:00:29;;;;;;;3.60;2.03;;;;;;;19.19;50.75;100963.97;8040359;28;20024;-71
2021/06/28 00:04:19;;;;;;;3.85;2.22;;;;;;;19.12;51.02;100958.41;8036232;28;20044;-71
2021/06/28 00:08:10;;;;;;;2.35;2.15;;;;;;;19.08;51.05;100953.53;8039039;28;20033;-71
2021/06/28 00:12:01;;;;;;;3.70;2.42;;;;;;;19.05;50.87;100948.53;8038556;28;20059;-71
2021/06/28 00:15:51;;;;;;;3.15;2.20;;;;;;;18.99;51.27;100946.47;8039724;28;20751;-71
2021/06/28 00:19:42;;;;;;;2.67;2.05;;;;;;;18.95;51.34;100942.44;8038643;28;20035;-71
2021/06/28 00:23:33;;;;;;;2.65;2.33;;;;;;;18.90;51.25;100934.91;8034590;28;20032;-71
2021/06/28 00:27:25;;;;;;;3.75;2.20;;;;;;;18.83;51.29;100936.53;8038271;28;20028;-71
2021/06/28 00:31:15;;;;;;;2.70;2.08;;;;;;;18.79;51.26;100928.03;8037892;28;20039;-71
2021/06/28 00:35:07;;;;;;;5.28;2.40;;;;;;;18.76;51.40;100931.00;8038733;28;20036;-71
2021/06/28 00:38:57;;;;;;;3.10;2.42;;;;;;;18.73;51.30;100920.63;8038948;28;20064;-71
2021/06/28 00:42:48;;;;;;;3.13;2.47;;;;;;;18.69;51.34;100913.94;8037974;28;20032;-71
2021/06/28 00:46:39;;;;;;;3.67;2.33;;;;;;;18.66;51.15;100916.09;8039012;28;20040;-71
2021/06/28 00:50:32;;;;;;;2.63;2.10;;;;;;;18.62;51.21;100909.41;8039175;28;20028;-71
2021/06/28 00:54:24;;;;;;;5.88;1.90;;;;;;;18.58;51.14;100916.00;8038371;28;20060;-70
2021/06/28 00:58:16;;;;;;;8.27;2.20;;;;;;;18.51;51.37;100921.13;8038097;28;20444;-71
2021/06/28 01:02:06;;;;;;;2.50;2.15;;;;;;;18.49;51.31;100925.75;8036988;28;20032;-70
2021/06/28 01:05:58;;;;;;;4.10;2.05;;;;;;;18.45;51.33;100916.38;8038130;28;20392;-71
2021/06/28 01:09:49;;;;;;;4.65;2.38;;;;;;;18.41;51.54;100923.81;8038168;28;20056;-71
2021/06/28 01:13:40;;;;;;;3.47;2.45;;;;;;;18.36;51.32;100912.78;8037842;28;20497;-71
2021/06/28 01:17:32;;;;;;;3.17;2.53;;;;;;;18.31;51.64;100908.91;8038871;28;20036;-71
2021/06/28 01:21:26;;;;;;;2.42;2.00;;;;;;;18.31;52.05;100914.22;8038188;28;20063;-70
2021/06/28 01:25:20;;;;;;;2.53;1.92;;;;;;;18.27;51.88;100910.19;8037625;28;20036;-71
2021/06/28 01:29:11;;;;;;;5.75;2.53;;;;;;;18.24;51.68;100918.47;8038043;28;20029;-71
2021/06/28 01:33:02;;;;;;;3.38;2.55;;;;;;;18.18;51.89;100921.72;8037173;28;20035;-71
2021/06/28 01:36:53;;;;;;;3.00;2.30;;;;;;;18.18;51.64;100927.03;8037757;28;20082;-71
2021/06/28 01:40:44;;;;;;;2.83;2.42;;;;;;;18.16;52.09;100918.38;8037912;28;20044;-70
2021/06/28 01:44:35;;;;;;;4.15;2.30;;;;;;;18.13;52.09;100918.69;8037972;28;20029;-70
2021/06/28 01:48:26;;;;;;;4.65;2.58;;;;;;;18.10;52.23;100935.78;8038030;28;20106;-70
2021/06/28 01:52:17;;;;;;;3.40;2.40;;;;;;;18.10;52.04;100938.44;8037259;28;20021;-70
2021/06/28 01:56:07;;;;;;;8.48;2.88;;;;;;;18.05;52.32;100939.84;8036811;28;20044;-71
2021/06/28 01:59:59;;;;;;;4.95;2.75;;;;;;;18.08;52.54;100939.53;8036195;28;20481;-70
2021/06/28 02:03:49;;;;;;;7.60;3.40;;;;;;;18.06;52.58;100945.03;8036998;28;20041;-71
2021/06/28 02:07:40;;;;;;;5.18;3.08;;;;;;;18.03;52.54;100939.97;8043091;28;20074;-70
2021/06/28 02:11:30;;;;;;;6.15;3.67;;;;;;;18.05;52.46;100948.66;8042533;28;20097;-70
2021/06/28 02:15:27;;;;;;;5.15;3.08;;;;;;;18.06;52.52;100933.56;8043166;28;20032;-70
2021/06/28 02:19:18;;;;;;;6.55;3.42;;;;;;;18.05;52.92;100926.56;8036396;28;20440;-70
2021/06/28 02:23:22;;;;;;;6.80;3.58;;;;;;;18.02;52.83;100926.88;8041933;28;20788;-70
2021/06/28 02:27:12;;;;;;;4.45;3.30;;;;;;;18.02;52.74;100929.53;8042944;28;20028;-70
2021/06/28 02:31:06;;;;;;;8.88;3.65;;;;;;;18.00;52.87;100925.19;8043272;28;20039;-70
2021/06/28 02:34:56;;;;;;;9.85;3.40;;;;;;;17.99;52.78;100918.19;8042951;28;20115;-69
2021/06/28 02:38:49;;;;;;;10.65;3.58;;;;;;;17.97;53.09;100911.34;8042386;28;20034;-71
2021/06/28 02:42:41;;;;;;;5.65;3.63;;;;;;;17.95;53.15;100914.16;8042669;28;20052;-70
2021/06/28 02:46:51;;;;;;;11.13;3.80;;;;;;;17.87;53.08;100903.41;8042318;28;20504;-70
2021/06/28 02:50:42;;;;;;;4.55;3.53;;;;;;;17.86;53.12;100904.41;8042660;28;20048;-70
2021/06/28 02:54:33;;;;;;;8.18;3.63;;;;;;;17.83;52.81;100898.53;8042523;28;20041;-70
2021/06/28 02:58:23;;;;;;;8.05;3.60;;;;;;;17.80;52.80;100890.88;8040876;28;20028;-70
2021/06/28 03:02:15;;;;;;;3.63;2.60;;;;;;;17.75;52.90;100893.13;8041906;28;20039;-70
2021/06/28 03:06:17;;;;;;;5.30;3.40;;;;;;;17.70;53.04;100898.88;8025819;28;20126;-70
2021/06/28 03:10:19;;;;;;;6.43;3.45;;;;;;;17.69;53.13;100899.91;8044554;27;21257;-71
2021/06/28 03:14:21;;;;;;;7.75;2.97;;;;;;;17.64;53.17;100902.13;8049085;28;20654;-70
2021/06/28 03:18:22;;;;;;;3.72;2.88;;;;;;;17.60;53.09;100902.53;8082161;28;20617;-71
2021/06/28 03:22:25;;;;;;;4.30;3.17;;;;;;;17.55;53.06;100898.50;8114575;27;20608;-71
2021/06/28 03:26:28;;;;;;;7.53;3.42;;;;;;;17.54;53.06;100909.28;8082636;27;20618;-71
2021/06/28 03:30:29;;;;;;;6.35;3.75;;;;;;;17.49;53.25;100906.19;8146274;27;20618;-70
2021/06/28 03:34:30;;;;;;;10.95;3.88;;;;;;;17.49;53.18;100922.13;8048718;28;20649;-70
2021/06/28 03:38:32;;;;;;;6.45;3.38;;;;;;;17.46;53.46;100928.59;8050073;28;20608;-70
2021/06/28 03:42:35;;;;;;;7.93;4.00;;;;;;;17.38;53.42;100912.53;8045290;28;20607;-70
2021/06/28 03:46:36;;;;;;;10.82;4.20;;;;;;;17.35;53.56;100909.34;8114906;27;20627;-71
2021/06/28 03:50:38;;;;;;;8.40;4.18;;;;;;;17.40;53.67;100929.16;8049203;28;20607;-71
2021/06/28 03:54:39;;;;;;;4.25;3.45;;;;;;;17.39;53.92;100927.50;8114671;27;20638;-70
2021/06/28 03:58:45;;;;;;;7.55;3.95;;;;;;;17.39;53.73;100935.47;8044163;28;20624;-71
2021/06/28 04:02:47;;;;;;;5.97;3.70;;;;;;;17.39;53.71;100930.16;8045246;28;20612;-71
2021/06/28 04:06:48;;;;;;;4.57;3.42;;;;;;;17.41;53.89;100932.66;8111184;27;20617;-71
2021/06/28 04:10:52;;;;;;;11.40;4.57;;;;;;;17.41;53.96;100930.84;8069724;27;20630;-71
2021/06/28 04:14:54;;;;;;;10.68;3.22;;;;;;;17.43;54.07;100933.34;8036769;28;20623;-70
2021/06/28 04:18:56;;;;;;;8.25;3.75;;;;;;;17.44;54.23;100943.00;8049753;28;20619;-71
2021/06/28 04:22:57;;;;;;;5.97;3.58;;;;;;;17.40;53.96;100928.34;8114773;27;20626;-71
2021/06/28 04:26:58;;;;;;;4.13;3.38;;;;;;;17.47;53.99;100938.25;8116468;27;20627;-71
2021/06/28 04:31:00;;;;;;;7.90;3.85;;;;;;;17.55;54.11;100950.78;8082836;28;20998;-71
2021/06/28 04:35:11;;;;;;;7.25;3.88;;;;;;;17.59;54.31;100940.72;8048921;28;20967;-70
2021/06/28 04:39:12;;;;;;;11.60;3.67;;;;;;;17.65;54.37;100933.00;8054938;28;20622;-71
2021/06/28 04:43:14;;;;;;;7.93;4.03;;;;;;;17.79;54.74;100937.03;8050310;28;20985;-70
2021/06/28 04:47:16;;;;;;;9.77;4.38;;;;;;;17.94;54.83;100930.25;8050462;28;21004;-71
2021/06/28 04:51:18;;;;;;;9.25;4.72;;;;;;;18.11;54.76;100929.44;8033740;28;20616;-71
2021/06/28 04:55:21;;;;;;;6.13;4.28;;;;;;;18.42;54.56;100927.31;8044187;28;20612;-71
2021/06/28 04:59:22;;;;;;;8.15;4.18;;;;;;;18.79;54.86;100920.03;8077198;27;20623;-71
2021/06/28 05:03:24;;;;;;;12.25;5.15;;;;;;;19.25;54.92;100910.94;8043836;28;20656;-71
2021/06/28 05:07:25;;;;;;;10.82;5.65;;;;;;;19.78;55.17;100909.88;8047017;28;20616;-72
2021/06/28 05:11:26;;;;;;;8.95;5.30;;;;;;;20.35;54.99;100899.41;8111746;27;21306;-72
2021/06/28 05:15:28;;;;;;;13.25;6.47;;;;;;;20.86;54.50;100899.16;8112792;27;20617;-72
2021/06/28 05:19:29;;;;;;;11.10;6.18;;;;;;;21.43;54.17;100904.44;8048344;28;21363;-72
2021/06/28 05:23:31;;;;;;;8.32;5.05;;;;;;;21.96;53.65;100909.94;8049734;28;20620;-72
2021/06/28 05:27:33;;;;;;;9.73;6.53;;;;;;;22.39;53.13;100897.84;8082526;27;20618;-72
2021/06/28 05:31:35;;;;;;;9.25;6.05;;;;;;;22.80;52.74;100882.31;8042956;28;21248;-72
2021/06/28 05:35:36;;;;;;;7.65;5.72;;;;;;;22.82;52.25;100888.34;8114860;27;20627;-72
2021/06/28 05:39:38;;;;;;;10.80;5.90;;;;;;;22.67;51.87;100895.47;8114916;27;20620;-72
2021/06/28 05:43:39;;;;;;;11.82;6.57;;;;;;;22.66;51.93;100898.34;8098262;27;21080;-72
2021/06/28 05:47:41;;;;;;;10.02;6.63;;;;;;;22.70;51.86;100889.78;8115227;27;20624;-72
2021/06/28 05:51:42;;;;;;;9.20;6.50;;;;;;;22.80;51.55;100879.66;8033646;28;20992;-72
2021/06/28 05:55:44;;;;;;;12.05;6.55;;;;;;;23.31;51.79;100898.63;8050207;28;20619;-73
2021/06/28 05:59:46;;;;;;;11.98;6.43;;;;;;;23.76;51.16;100884.22;8050360;28;21220;-72
2021/06/28 06:03:48;;;;;;;11.18;7.80;;;;;;;24.05;50.45;100889.53;8082464;28;20617;-72
2021/06/28 06:07:49;;;;;;;9.10;6.43;;;;;;;23.99;50.65;100894.81;8082381;27;20623;-72
2021/06/28 06:11:51;;;;;;;11.02;7.07;;;;;;;24.15;50.42;100897.28;8076983;27;20613;-72
2021/06/28 06:15:54;;;;;;;11.93;7.95;;;;;;;24.29;50.03;100893.72;8045541;28;20649;-72
2021/06/28 06:19:55;;;;;;;14.25;8.18;;;;;;;24.10;50.06;100897.84;8030798;28;20624;-72
2021/06/28 06:23:57;;;;;;;15.20;8.20;;;;;;;23.92;49.84;100891.19;8103451;27;20612;-72
2021/06/28 06:27:58;;;;;;;12.23;8.68;;;;;;;23.81;49.95;100892.53;8081004;27;21158;-72
2021/06/28 06:31:59;;;;;;;11.45;8.05;;;;;;;23.67;49.97;100883.44;8097657;27;20614;-71
2021/06/28 06:36:01;;;;;;;15.13;8.63;;;;;;;23.42;49.99;100888.25;8081927;27;21218;-72
2021/06/28 06:40:04;;;;;;;12.57;7.78;;;;;;;23.15;49.94;100899.63;8079121;27;20628;-73
2021/06/28 06:44:05;;;;;;;10.68;8.40;;;;;;;22.87;50.14;100891.28;8052172;28;20622;-71
2021/06/28 06:48:07;;;;;;;10.68;7.72;;;;;;;22.76;50.35;100901.59;8052791;28;20611;-71
2021/06/28 06:52:09;;;;;;;12.63;8.95;;;;;;;23.34;50.42;100906.28;8033670;28;20631;-72
2021/06/28 06:56:11;;;;;;;14.80;8.05;;;;;;;24.62;50.18;100900.25;8086989;27;20621;-72
2021/06/28 07:00:17;;;;;;;12.25;7.72;;;;;;;26.11;49.25;100908.75;8054513;28;20618;-72
2021/06/28 07:04:19;;;;;;;9.85;7.90;;;;;;;27.42;47.97;100897.25;8116932;27;20609;-72
2021/06/28 07:08:20;;;;;;;10.45;7.22;;;;;;;28.61;46.65;100875.09;8045039;28;20646;-71
2021/06/28 07:12:22;;;;;;;11.18;8.45;;;;;;;29.61;45.19;100879.38;8020645;28;20628;-72
2021/06/28 07:16:24;;;;;;;9.07;7.65;;;;;;;29.95;43.99;100886.88;8033842;28;20624;-71
2021/06/28 07:20:26;;;;;;;10.18;8.25;;;;;;;30.24;43.43;100892.56;8046233;27;20622;-71
2021/06/28 07:24:27;;;;;;;11.30;8.65;;;;;;;30.83;42.79;100891.63;8034570;28;20613;-71
2021/06/28 07:28:29;;;;;;;10.63;8.60;;;;;;;30.90;42.03;100884.22;8038951;28;21204;-71
2021/06/28 07:32:32;;;;;;;15.23;9.10;;;;;;;30.24;41.84;100885.25;7983142;28;20673;-71
2021/06/28 07:36:33;;;;;;;9.30;7.75;;;;;;;29.61;41.76;100890.19;8074213;28;20610;-70
2021/06/28 07:40:34;;;;;;;10.95;7.45;;;;;;;28.99;42.29;100899.34;8042854;28;21228;-72
2021/06/28 07:44:36;;;;;;;11.00;7.57;;;;;;;28.33;42.85;100899.81;8033529;28;20629;-71
2021/06/28 07:48:37;;;;;;;9.73;7.38;;;;;;;28.53;42.86;100888.88;8074678;28;21233;-71
2021/06/28 07:52:39;;;;;;;12.25;7.68;;;;;;;29.63;41.86;100891.59;8056311;27;20612;-72
2021/06/28 07:56:42;;;;;;;11.27;8.48;;;;;;;30.76;40.83;100897.19;8034636;28;20624;-71
2021/06/28 08:00:45;;;;;;;10.95;8.15;;;;;;;31.76;40.41;100891.59;8021542;28;20618;-71
2021/06/28 08:04:46;;;;;;;9.07;7.13;;;;;;;32.74;39.20;100878.50;8043029;28;21214;-72
2021/06/28 08:08:50;;;;;;;10.07;7.38;;;;;;;33.59;37.86;100890.91;8070507;28;20625;-70
2021/06/28 08:12:52;;;;;;;9.10;7.57;;;;;;;34.29;37.23;100885.47;8065268;27;21202;-69
2021/06/28 08:16:54;;;;;;;10.00;7.28;;;;;;;34.67;36.27;100879.00;8038569;28;20620;-70
2021/06/28 08:20:55;;;;;;;10.38;7.75;;;;;;;34.48;35.71;100875.81;8042126;28;21228;-72
2021/06/28 08:24:56;;;;;;;9.68;6.93;;;;;;;33.65;35.81;100877.09;8045897;28;20642;-70
2021/06/28 08:29:02;;;;;;;9.95;7.50;;;;;;;32.48;37.16;100868.22;8099624;27;20611;-72
2021/06/28 08:33:04;;;;;;;9.07;6.53;;;;;;;31.41;37.92;100864.50;8040839;28;20647;-72
2021/06/28 08:37:05;;;;;;;8.90;7.15;;;;;;;30.47;38.31;100854.66;8091713;27;20614;-72
2021/06/28 08:41:09;;;;;;;11.00;8.40;;;;;;;29.73;38.84;100853.22;8039750;28;21483;-71
2021/06/28 08:45:14;;;;;;;8.98;6.28;;;;;;;29.13;39.40;100860.28;8050687;28;20608;-72
2021/06/28 08:49:16;;;;;;;10.25;7.72;;;;;;;28.80;39.63;100884.94;8012831;28;20637;-72
2021/06/28 08:53:19;;;;;;;8.13;6.20;;;;;;;28.60;39.87;100895.06;8032562;28;20624;-72
2021/06/28 08:57:20;;;;;;;9.02;6.50;;;;;;;28.72;40.38;100909.53;8029549;28;20988;-72
2021/06/28 09:01:22;;;;;;;9.73;6.13;;;;;;;28.70;40.58;100898.13;8047909;28;20631;-72
2021/06/28 09:05:23;;;;;;;7.07;5.65;;;;;;;28.60;40.64;100909.41;8112061;27;20613;-72
2021/06/28 09:09:35;;;;;;;9.48;6.10;;;;;;;28.39;40.69;100910.56;8039541;28;20727;-72
2021/06/28 09:13:40;;;;;;;9.73;5.80;;;;;;;28.20;41.08;100906.13;8104061;27;20554;-72
2021/06/28 09:17:43;;;;;;;8.88;6.38;;;;;;;28.09;41.49;100906.75;8080714;28;20626;-72
2021/06/28 09:21:53;;;;;;;7.90;5.32;;;;;;;27.96;41.65;100904.16;8097720;27;20625;-72
2021/06/28 09:25:58;;;;;;;13.90;6.47;;;;;;;27.78;41.47;100915.63;8032364;28;20631;-72
2021/06/28 09:30:13;;;;;;;8.35;6.75;;;;;;;27.58;41.88;100920.25;8048714;28;20631;-72
2021/06/28 09:34:19;;;;;;;7.50;6.00;;;;;;;27.34;41.95;100907.44;8114493;27;21545;-71
2021/06/28 09:38:41;;;;;;;7.57;5.85;;;;;;;27.28;42.41;100913.66;8091082;27;20619;-71
2021/06/28 09:42:43;;;;;;;12.25;5.80;;;;;;;27.21;42.17;100915.56;8069800;28;20622;-71
2021/06/28 09:46:46;;;;;;;6.93;5.38;;;;;;;27.06;42.05;100921.13;8098634;27;21208;-71
2021/06/28 09:50:48;;;;;;;9.38;6.50;;;;;;;26.91;42.50;100923.19;8040584;28;20696;-72
2021/06/28 09:55:20;;;;;;;10.35;6.95;;;;;;;26.81;42.95;100928.16;8134418;27;24422;-71
2021/06/28 09:59:40;;;;;;;9.40;7.05;;;;;;;26.72;43.09;100932.13;8066362;27;24431;-72
2021/06/28 10:03:56;;;;;;;11.27;6.68;;;;;;;26.60;43.64;100940.78;8137339;27;21858;-71
2021/06/28 10:08:17;;;;;;;10.93;6.75;;;;;;;26.51;43.52;100952.78;8076821;27;24414;-71
2021/06/28 10:12:35;;;;;;;9.10;6.15;;;;;;;26.30;43.92;100935.94;8122892;27;20159;-72
2021/06/28 10:16:56;;;;;;;7.80;6.07;;;;;;;26.29;43.90;100942.34;8073823;27;24434;-72
2021/06/28 10:21:16;;;;;;;12.27;5.80;;;;;;;26.19;44.17;100947.28;8070238;27;20630;-72
2021/06/28 10:25:38;;;;;;;8.48;5.43;;;;;;;26.15;44.48;100936.06;8075951;27;24975;-71
2021/06/28 10:30:10;;;;;;;8.63;5.97;;;;;;;26.17;44.89;100925.97;8003218;27;20127;-72
2021/06/28 10:34:25;;;;;;;7.70;5.40;;;;;;;26.26;45.32;100913.97;8082424;27;24431;-72
2021/06/28 10:38:58;;;;;;;17.48;9.00;;;;;;;26.38;45.00;100923.13;8117880;27;20541;-72
2021/06/28 10:43:30;;;;;;;12.77;7.30;;;;;;;26.36;45.35;100895.53;8114942;27;20558;-72
2021/06/28 10:47:33;;;;;;;8.30;6.03;;;;;;;26.32;44.92;100896.16;8046718;28;20637;-72
2021/06/28 10:51:48;;;;;;;8.85;5.40;;;;;;;26.25;44.28;100871.91;8044105;27;21259;-72
2021/06/28 11:00:51;;;;;;;8.07;4.90;;;;;;;26.26;44.75;100868.19;8025582;28;20554;-72
2021/06/28 11:05:03;;;;;;;9.20;4.70;;;;;;;26.39;44.63;100862.00;8031884;28;20044;-72
2021/06/28 11:09:12;;;;;;;10.77;5.53;;;;;;;26.47;44.87;100851.84;8043426;28;20040;-72
2021/06/28 11:13:27;;;;;;;5.88;4.25;;;;;;;26.64;44.76;100852.28;8032208;28;20048;-72
2021/06/28 11:17:45;;;;;;;7.63;4.60;;;;;;;26.77;44.52;100854.16;8032186;28;20079;-72
2021/06/28 11:21:55;;;;;;;6.05;3.28;;;;;;;26.85;44.45;100854.78;8027266;28;20420;-72
2021/06/28 11:25:56;;;;;;;4.32;2.78;;;;;;;26.91;44.25;100853.97;8027310;28;20688;-72
2021/06/28 11:30:22;;;;;;;5.32;3.50;;;;;;;27.02;43.92;100847.09;8138070;27;20164;-72
2021/06/28 11:34:42;;;;;;;6.43;3.65;;;;;;;27.07;43.95;100847.28;8216964;27;24484;-72
2021/06/28 11:38:33;;;;;;;6.50;3.08;;;;;;;27.09;43.69;100847.97;8195291;27;20034;-72
2021/06/28 11:42:37;;;;;;;3.10;2.50;;;;;;;27.14;43.73;100842.75;8026918;28;20630;-72
2021/06/28 11:47:08;;;;;;;5.00;3.10;;;;;;;27.22;43.27;100844.41;8131692;27;24466;-72
2021/06/28 11:51:29;;;;;;;5.10;2.83;;;;;;;27.23;43.28;100844.19;8210331;27;24512;-72
2021/06/28 11:55:49;;;;;;;3.22;2.60;;;;;;;27.26;43.16;100854.53;8088139;27;25377;-72
2021/06/28 12:00:09;;;;;;;4.20;2.90;;;;;;;27.26;43.09;100846.44;8129765;27;21118;-72
2021/06/28 12:04:31;;;;;;;5.78;2.83;;;;;;;27.29;42.94;100845.22;8210195;27;24442;-71
2021/06/28 12:09:01;;;;;;;4.20;2.47;;;;;;;27.31;42.81;100843.13;8064827;27;24423;-72
2021/06/28 12:13:35;;;;;;;4.20;2.20;;;;;;;27.29;42.34;100835.25;8129546;27;24415;-72
2021/06/28 12:18:07;;;;;;;4.07;2.70;;;;;;;27.38;41.79;100852.03;8132069;27;24433;-72
2021/06/28 12:22:34;;;;;;;4.32;2.47;;;;;;;27.33;41.65;100839.19;8132023;27;24981;-73
2021/06/28 12:27:00;;;;;;;3.95;2.50;;;;;;;27.28;42.10;100841.69;8067134;27;24775;-72
2021/06/28 12:31:01;;;;;;;2.80;2.42;;;;;;;27.18;42.20;100835.88;8050863;28;20616;-72
2021/06/28 12:35:06;;;;;;;3.92;2.40;;;;;;;27.07;41.57;100836.50;8148337;27;20616;-71
2021/06/28 12:39:07;;;;;;;3.72;2.10;;;;;;;26.95;41.63;100851.66;8078562;28;20621;-72
2021/06/28 12:43:15;;;;;;;2.42;2.08;;;;;;;26.91;41.79;100853.97;8038193;28;20698;-72
2021/06/28 12:47:19;;;;;;;2.88;2.03;;;;;;;27.02;41.96;100847.09;8094948;27;20618;-72
2021/06/28 12:51:21;;;;;;;2.80;2.30;;;;;;;27.06;41.97;100849.16;8070680;28;20621;-72
2021/06/28 12:55:31;;;;;;;3.40;2.53;;;;;;;27.11;42.46;100858.50;8052637;28;20742;-71
2021/06/28 12:59:51;;;;;;;2.88;2.33;;;;;;;27.13;41.94;100851.06;8209875;27;24493;-73
2021/06/28 13:04:24;;;;;;;2.47;2.05;;;;;;;27.11;41.60;100840.47;8218370;27;24491;-71
2021/06/28 13:08:39;;;;;;;2.30;1.90;;;;;;;27.13;41.50;100846.50;8062776;27;24426;-73
2021/06/28 13:13:23;;;;;;;2.97;2.10;;;;;;;27.05;41.66;100849.38;8094907;27;20133;-72
2021/06/28 13:17:38;;;;;;;2.35;1.70;;;;;;;27.05;41.96;100844.00;8056823;27;24423;-72
2021/06/28 13:21:58;;;;;;;2.03;1.80;;;;;;;27.11;41.85;100834.25;8128115;27;20155;-71
2021/06/28 13:26:32;;;;;;;2.03;1.75;;;;;;;27.10;41.46;100838.81;8114646;27;24442;-74
2021/06/28 13:30:59;;;;;;;1.90;1.70;;;;;;;27.00;41.66;100841.09;8184068;27;24860;-71
2021/06/28 13:35:28;;;;;;;1.70;1.50;;;;;;;26.91;41.72;100848.56;8199599;27;24868;-71
2021/06/28 13:39:57;;;;;;;4.30;1.50;;;;;;;26.87;42.13;100847.31;8049150;27;25214;-72
2021/06/28 13:44:13;;;;;;;1.92;1.63;;;;;;;26.82;41.96;100859.75;8062892;27;25013;-71
2021/06/28 13:48:29;;;;;;;4.13;1.60;;;;;;;26.74;42.34;100857.28;8086551;27;20136;-72
2021/06/28 13:52:56;;;;;;;2.00;1.80;;;;;;;26.73;42.46;100859.13;8085965;27;24430;-72
2021/06/28 13:57:12;;;;;;;2.92;1.80;;;;;;;26.74;42.96;100865.34;8071396;27;24427;-72
2021/06/28 14:01:28;;;;;;;2.92;1.73;;;;;;;26.70;42.93;100862.25;8054351;27;24427;-72
2021/06/28 14:05:51;;;;;;;2.50;2.13;;;;;;;26.66;42.78;100873.66;8060276;27;20133;-72
2021/06/28 14:10:07;;;;;;;2.17;1.80;;;;;;;26.54;42.80;100868.06;8053429;27;24423;-72
2021/06/28 14:14:23;;;;;;;1.67;1.45;;;;;;;26.47;42.93;100872.59;8117100;27;20120;-72
2021/06/28 14:18:42;;;;;;;3.88;1.80;;;;;;;26.41;43.19;100868.00;8187161;27;24463;-72
2021/06/28 14:23:15;;;;;;;2.47;1.83;;;;;;;26.44;42.78;100876.50;8083519;27;24426;-72
2021/06/28 14:27:40;;;;;;;2.10;1.80;;;;;;;26.33;42.96;100881.66;8085690;27;24450;-72
2021/06/28 14:31:56;;;;;;;2.60;2.05;;;;;;;26.24;43.38;100890.97;8052708;27;24958;-72
2021/06/28 14:36:13;;;;;;;1.85;1.55;;;;;;;26.17;43.39;100888.25;8084979;27;20125;-72
2021/06/28 14:40:38;;;;;;;1.58;1.40;;;;;;;26.11;43.50;100894.44;8118054;27;24430;-72
2021/06/28 14:44:54;;;;;;;1.83;1.40;;;;;;;26.02;43.04;100890.28;8052762;27;24427;-72
2021/06/28 14:49:11;;;;;;;1.58;1.30;;;;;;;26.00;43.04;100898.56;8053322;27;24431;-72
2021/06/28 14:53:45;;;;;;;2.13;1.58;;;;;;;25.98;42.88;100888.97;8083422;27;20538;-71
2021/06/28 14:58:05;;;;;;;1.35;1.20;;;;;;;25.88;43.18;100894.75;8113225;27;20568;-71
2021/06/28 15:02:36;;;;;;;2.65;1.10;;;;;;;25.94;43.06;100896.63;8119592;27;24421;-71
2021/06/28 15:07:04;;;;;;;2.53;1.27;;;;;;;25.94;42.79;100899.31;8118357;27;24433;-71
2021/06/28 15:11:38;;;;;;;4.07;1.10;;;;;;;25.92;42.49;100892.50;8117289;27;24410;-72
2021/06/28 15:15:54;;;;;;;1.55;1.42;;;;;;;25.89;42.66;100885.66;8052439;27;24446;-72
2021/06/28 15:20:11;;;;;;;2.60;1.20;;;;;;;25.88;42.71;100880.47;8110967;27;20132;-72
2021/06/28 15:24:31;;;;;;;1.52;1.40;;;;;;;25.89;42.50;100876.75;8186614;27;24477;-71
2021/06/28 15:28:49;;;;;;;1.20;1.10;;;;;;;25.92;42.49;100897.88;8050365;28;24450;-72
2021/06/28 15:33:11;;;;;;;1.77;1.23;;;;;;;25.87;42.10;100884.19;8120867;27;20569;-71
2021/06/28 15:37:32;;;;;;;7.93;1.77;;;;;;;25.85;42.33;100881.72;8118455;27;20526;-71
2021/06/28 15:41:57;;;;;;;1.40;1.30;;;;;;;25.82;42.45;100878.56;8088368;27;24431;-72
2021/06/28 15:46:16;;;;;;;3.20;1.55;;;;;;;25.79;42.32;100884.38;8186568;27;24427;-71
2021/06/28 15:50:36;;;;;;;1.80;1.52;;;;;;;25.81;42.35;100885.81;8186285;27;25013;-72
2021/06/28 15:54:54;;;;;;;1.55;1.40;;;;;;;25.84;42.68;100898.06;8072063;27;24427;-71
2021/06/28 15:59:14;;;;;;;2.20;1.67;;;;;;;25.82;42.73;100898.25;8112987;27;20565;-71
2021/06/28 16:03:31;;;;;;;2.60;1.58;;;;;;;25.78;42.90;100898.84;8052482;27;24423;-71
2021/06/28 16:07:51;;;;;;;2.63;1.45;;;;;;;25.75;42.58;100888.47;8186791;27;24452;-71
2021/06/28 16:12:10;;;;;;;1.92;1.67;;;;;;;25.68;42.38;100883.94;8185780;27;24428;-71
2021/06/28 16:16:35;;;;;;;2.30;1.55;;;;;;;25.63;42.34;100874.78;8086823;27;24450;-71
2021/06/28 16:21:03;;;;;;;1.63;1.48;;;;;;;25.52;42.43;100878.03;8068784;27;20137;-71
2021/06/28 16:25:22;;;;;;;1.90;1.70;;;;;;;25.47;42.70;100870.56;8184668;27;24528;-71
2021/06/28 16:29:40;;;;;;;3.72;1.70;;;;;;;25.40;42.15;100858.91;8052553;27;24887;-72
2021/06/28 16:33:59;;;;;;;2.33;1.80;;;;;;;25.40;42.46;100861.59;8185122;27;24532;-72
2021/06/28 16:38:19;;;;;;;1.90;1.70;;;;;;;25.34;42.14;100854.34;8185591;27;24520;-71
2021/06/28 16:42:38;;;;;;;1.45;1.35;;;;;;;25.31;41.96;100849.34;8059283;27;24450;-71
2021/06/28 16:47:00;;;;;;;1.50;1.40;;;;;;;25.28;42.01;100852.41;8116317;27;20525;-72
2021/06/28 16:51:25;;;;;;;2.30;1.60;;;;;;;25.27;42.18;100855.31;8118748;27;24437;-70
2021/06/28 16:55:44;;;;;;;2.63;1.60;;;;;;;25.24;42.03;100853.84;8183832;27;24797;-72
2021/06/28 17:00:03;;;;;;;2.08;1.88;;;;;;;25.19;42.27;100848.22;8052020;27;24431;-72
2021/06/28 17:04:19;;;;;;;1.83;1.55;;;;;;;25.14;42.42;100862.28;8060346;27;24435;-72
2021/06/28 17:08:36;;;;;;;1.75;1.65;;;;;;;25.09;42.52;100850.44;8116781;27;20786;-72
2021/06/28 17:12:45;;;;;;;3.97;1.50;;;;;;;25.02;42.69;100841.53;8091389;28;20043;-71
2021/06/28 17:17:06;;;;;;;2.13;1.70;;;;;;;24.99;42.77;100847.28;8055808;27;25026;-72
2021/06/28 17:21:17;;;;;;;1.55;1.45;;;;;;;24.91;42.33;100847.41;8072462;28;20036;-72
2021/06/28 17:25:36;;;;;;;1.88;1.65;;;;;;;24.84;42.29;100833.91;8184292;27;24481;-71
2021/06/28 17:30:04;;;;;;;2.92;2.58;;;;;;;25.48;40.97;100833.75;8107138;27;24478;-71
2021/06/28 17:34:23;;;;;;;2.67;2.40;;;;;;;24.91;42.24;100847.41;8071842;27;25231;-71
2021/06/28 17:38:45;;;;;;;2.67;2.05;;;;;;;24.77;42.59;100838.41;8049801;27;20548;-72
2021/06/28 17:43:07;;;;;;;2.15;1.85;;;;;;;24.67;42.50;100838.75;8068393;27;24598;-72
2021/06/28 17:47:22;;;;;;;2.40;2.00;;;;;;;24.59;43.01;100840.75;8054055;27;25057;-71
2021/06/28 17:51:41;;;;;;;3.17;1.80;;;;;;;24.51;42.97;100857.81;8097590;27;21883;-71
2021/06/28 17:56:16;;;;;;;1.92;1.77;;;;;;;24.45;42.93;100850.53;8060064;27;24427;-72
2021/06/28 18:00:32;;;;;;;2.30;1.77;;;;;;;24.39;42.96;100840.56;8052829;27;24435;-72
2021/06/28 18:04:40;;;;;;;1.67;1.58;;;;;;;24.24;43.11;100835.22;8060096;27;20771;-71
2021/06/28 18:08:42;;;;;;;1.80;1.70;;;;;;;24.21;43.14;100851.72;8020546;28;20659;-73
2021/06/28 18:12:45;;;;;;;3.55;1.88;;;;;;;24.17;43.44;100850.44;8053148;28;20766;-73
2021/06/28 18:16:48;;;;;;;2.22;1.98;;;;;;;24.14;43.62;100841.94;8058295;27;20631;-71
2021/06/28 18:21:10;;;;;;;1.67;1.58;;;;;;;24.12;43.53;100834.06;8061330;27;20562;-71
2021/06/28 18:25:26;;;;;;;3.33;1.98;;;;;;;24.08;43.57;100838.16;8052518;27;24422;-72
2021/06/28 18:29:49;;;;;;;4.85;2.00;;;;;;;24.09;44.01;100847.03;8116225;27;20185;-73
2021/06/28 18:34:09;;;;;;;1.92;1.63;;;;;;;24.08;43.93;100840.81;8204383;27;24459;-71
2021/06/28 18:38:25;;;;;;;3.17;2.10;;;;;;;24.05;44.21;100816.25;8054662;27;25221;-73
2021/06/28 18:42:45;;;;;;;2.78;1.88;;;;;;;24.08;44.39;100822.03;8122569;27;20579;-71
2021/06/28 18:47:02;;;;;;;4.90;2.13;;;;;;;24.05;44.42;100818.91;8117290;27;20544;-73
2021/06/28 18:51:20;;;;;;;4.03;3.10;;;;;;;24.01;44.64;100820.31;8054835;27;24807;-73
2021/06/28 18:55:37;;;;;;;2.30;2.00;;;;;;;23.98;44.68;100813.50;8116775;27;20915;-71
2021/06/28 18:59:55;;;;;;;2.50;2.08;;;;;;;23.96;45.03;100812.84;8184971;27;24448;-73
2021/06/28 19:04:26;;;;;;;2.45;2.13;;;;;;;23.96;44.95;100814.69;8109065;27;24525;-70
2021/06/28 19:08:58;;;;;;;2.33;2.10;;;;;;;23.95;44.99;100813.06;8101835;27;24492;-73
2021/06/28 19:13:31;;;;;;;2.95;2.38;;;;;;;23.91;44.78;100812.56;8117111;27;24402;-71
2021/06/28 19:17:46;;;;;;;4.45;2.28;;;;;;;23.84;44.77;100817.88;8052389;27;24434;-72